Argyle, Michigan
Current Conditions -  °F | °C
As of 10:55 AM on Sunday 23 Nov 2014 (Local Time) from KBAX Reporting Station
Overcast Overcast  
Wind Chill: 41°   Ceiling: 2900
Heat Index: 47°   Visibility: 10mi
Dew Point: 45°   Wind: 12mph
Humidity: 95%   Direction: 190°S
Pressure: 29.88"   Gusts: NA
Location:  43.56°N, 82.94°W
Report Text: KBAX 231555Z AUTO 19010KT 10SM BKN029 OVC038 08/07 A2988 RMK AO2 T00810073
Loading
Personal Weather Stations






























Interactive Weather Map New forecast layout! Learn more

10-Day Weather Forecast

Advertisements
Track Severe Weather on mobile